Norse, Texas
Current Conditions -  °F | °C
As of 8:18 AM on Thursday 18 Dec 2014 (Local Time) from KACT Reporting Station
Haze Haze  
Wind Chill: 47°   Ceiling: 200
Heat Index: 47°   Visibility: 0.75mi
Dew Point: 46°   Wind: 0mph
Humidity: 97%   Direction: NA
Pressure: 30.14"   Gusts: NA
Location:  31.7854°N, 97.5786°W
Report Text: KACT 181418Z 00000KT 3/4SM BR OVC002 08/08 A3014 RMK AO2 T00830078
Loading
Personal Weather Stations






























Interactive Weather Map New forecast layout! Learn more

10-Day Weather Forecast

Advertisements
Track Severe Weather on mobile